Startpagina
METAR-TAF:

METAR-TAF

Vliegvelden :

Beauvais, Frankrijk

Aéroport de Paris-Beauvais-Tillé

breedte: 49-28N, lengte: 002-07E, hoogte: 109 m

Actueel weer

Dit bericht is 34 minuten geleden gemaakt, om 09:30 UTC
Wind 7 kt uit het oostzuidoosten
Temperatuur 1°C
Vochtigheid 93%
Druk 1019 hPa
Zicht: 6000 m
Weinig wolken op 800 ft
Geheel bewolkt op 1600 ft

METAR: LFOB 190930Z AUTO 12007KT 6000 FEW008 OVC016 01/00 Q1019 TEMPO 2000 DZRA BR OVC002

Tijdstip: 11:04 (10:04 UTC)

Verwachting

Dit bericht is 5 uur en het 4 minuten geleden gemaakt, om 05:00 UTC
Verwachting geldig van 19 om 06 UTC tot 20 om 06 UTC
Wind 7 kt uit het zuidoosten
Zicht: 8000 m
Gebroken wolken op 3000 ft
Wijzigt naar
van 19 om 06 UTC tot 19 om 09 UTC
Geheel bewolkt op 600 ft
Tijdelijke
van 19 om 09 UTC tot 20 om 06 UTC
Zicht: 2000 m
Geheel bewolkt op 200 ft
motregen, regen, nevel

TAF: LFOB 190500Z 1906/2006 13007KT 8000 BKN030 BECMG 1906/1909 OVC006 TEMPO 1909/2006 2000 DZRA BR OVC002

Waarnemingen en weersverwachtingen van meer dan 4000 vliegvelden (METAR en TAF).

De beschikbare stations zijn de gele en rode punten op de kaart.

Ga met uw muis naar het station om de naam te zien.

Klik dan om waarnemingen en weersverwachtingen te zien.

kaart wijzigen: klik op de groene knoppen met een zwart kruis om in te zoomen, op de groene knop met een streepje om uit te zoomen of op de groene pijlen voor aangrenzende kaarten.


METAR-TAF: